createdAt,value
2022-11-25T00:01:41.734Z,110.22
2022-11-25T00:04:09.220Z,105.85
2022-11-25T00:06:36.760Z,116.80
2022-11-25T00:09:08.373Z,109.72
2022-11-25T00:11:39.925Z,103.68
2022-11-25T00:14:08.801Z,103.15
2022-11-25T00:16:36.283Z,106.70
2022-11-25T00:19:03.932Z,103.53
2022-11-25T00:21:33.779Z,110.00
2022-11-25T00:24:04.129Z,109.18
2022-11-25T00:26:35.310Z,108.57
2022-11-25T00:29:04.835Z,109.55
2022-11-25T00:31:34.476Z,110.30
2022-11-25T00:34:01.945Z,105.95
2022-11-25T00:36:32.154Z,106.68
2022-11-25T00:39:01.835Z,103.68
2022-11-25T00:41:48.040Z,93.93
2022-11-25T00:44:40.892Z,96.32
2022-11-25T00:47:18.961Z,90.53
2022-11-25T00:49:49.322Z,97.95
2022-11-25T00:52:21.848Z,90.32
2022-11-25T00:54:50.163Z,96.90
2022-11-25T00:57:24.620Z,105.10
2022-11-25T00:59:52.065Z,96.82
2022-11-25T01:02:19.859Z,98.30
2022-11-25T01:04:47.934Z,98.38
2022-11-25T01:07:16.546Z,101.63
2022-11-25T01:09:43.902Z,92.68
2022-11-25T01:12:11.229Z,98.75
2022-11-25T01:14:39.651Z,104.32
2022-11-25T01:17:07.030Z,96.78
2022-11-25T01:19:40.324Z,91.85
2022-11-25T01:22:08.787Z,101.47
2022-11-25T01:24:36.162Z,101.72
2022-11-25T01:27:03.372Z,102.05
2022-11-25T01:29:32.028Z,99.30
2022-11-25T01:31:59.359Z,105.45
2022-11-25T01:34:28.464Z,105.03
2022-11-25T01:36:55.369Z,99.35
2022-11-25T01:39:32.126Z,99.20
2022-11-25T01:42:02.628Z,100.97
2022-11-25T01:44:39.510Z,103.82
2022-11-25T01:47:18.964Z,99.93
2022-11-25T01:49:58.174Z,101.75
2022-11-25T01:52:30.124Z,105.75
2022-11-25T01:55:04.688Z,103.53
2022-11-25T01:57:44.289Z,102.00
2022-11-25T02:00:12.555Z,98.55
2022-11-25T02:02:40.199Z,100.00
2022-11-25T02:05:10.785Z,96.63
2022-11-25T02:07:42.787Z,87.78
2022-11-25T02:10:16.917Z,98.03
2022-11-25T02:12:46.118Z,96.47
2022-11-25T02:15:15.622Z,92.43
2022-11-25T02:17:57.415Z,89.57
2022-11-25T02:20:25.864Z,89.47
2022-11-25T02:23:12.696Z,89.68
2022-11-25T02:25:41.850Z,91.28
2022-11-25T02:28:13.783Z,79.97
2022-11-25T02:30:41.682Z,90.35
2022-11-25T02:33:08.781Z,92.65
2022-11-25T02:35:44.192Z,93.95
2022-11-25T02:38:13.876Z,95.97
2022-11-25T02:41:03.434Z,89.20
2022-11-25T02:43:31.019Z,90.15
2022-11-25T02:46:25.970Z,96.35
2022-11-25T02:49:12.222Z,89.97
2022-11-25T02:51:42.131Z,91.72
2022-11-25T02:54:09.721Z,100.82
2022-11-25T02:56:38.858Z,93.45
2022-11-25T02:59:06.852Z,83.40
2022-11-25T03:01:35.644Z,82.88
2022-11-25T03:04:02.929Z,87.95
2022-11-25T03:06:30.503Z,87.88
2022-11-25T03:08:58.293Z,88.05
2022-11-25T03:11:46.616Z,82.35
2022-11-25T03:14:15.222Z,85.97
2022-11-25T03:16:44.047Z,85.57
2022-11-25T03:19:11.561Z,90.32
2022-11-25T03:21:38.983Z,86.63
2022-11-25T03:24:06.973Z,90.18
2022-11-25T03:26:34.055Z,88.85
2022-11-25T03:29:02.530Z,86.68
2022-11-25T03:31:32.030Z,88.35
2022-11-25T03:33:59.301Z,80.40
2022-11-25T03:36:26.256Z,88.03
2022-11-25T03:38:53.210Z,89.22
2022-11-25T03:41:23.734Z,83.55
2022-11-25T03:43:58.433Z,87.72
2022-11-25T03:46:25.917Z,87.13
2022-11-25T03:48:54.317Z,106.40
2022-11-25T03:51:21.489Z,89.10
2022-11-25T03:53:48.664Z,93.13
2022-11-25T03:56:15.719Z,100.43
2022-11-25T03:58:43.176Z,83.43
2022-11-25T04:01:10.723Z,82.90
2022-11-25T04:03:37.965Z,77.25
2022-11-25T04:06:05.045Z,82.47
2022-11-25T04:08:32.503Z,83.22
2022-11-25T04:10:59.989Z,84.82
2022-11-25T04:13:30.709Z,84.20
2022-11-25T04:15:59.852Z,89.95
2022-11-25T04:18:30.180Z,95.88
2022-11-25T04:20:58.358Z,98.35
2022-11-25T04:23:26.348Z,97.78
2022-11-25T04:25:53.370Z,103.10
2022-11-25T04:28:20.757Z,107.13
2022-11-25T04:30:48.813Z,110.38
2022-11-25T04:33:17.242Z,111.72
2022-11-25T04:35:46.158Z,106.95
2022-11-25T04:38:16.211Z,116.93
2022-11-25T04:40:43.446Z,113.22
2022-11-25T04:43:12.764Z,110.85
2022-11-25T04:46:06.403Z,104.05
2022-11-25T04:48:27.586Z,105.65
2022-11-25T04:50:55.769Z,100.03
2022-11-25T04:53:23.071Z,103.47
2022-11-25T04:55:50.459Z,110.70
2022-11-25T04:58:39.904Z,95.53
2022-11-25T05:01:06.834Z,114.55
2022-11-25T05:03:34.309Z,99.25
2022-11-25T05:06:08.578Z,95.57
2022-11-25T05:08:36.742Z,95.90
2022-11-25T05:11:03.913Z,102.40
2022-11-25T05:13:31.400Z,99.40
2022-11-25T05:16:01.748Z,110.28
2022-11-25T05:18:30.826Z,101.05
2022-11-25T05:21:03.014Z,104.68
2022-11-25T05:23:30.660Z,107.90
2022-11-25T05:26:01.655Z,97.05
2022-11-25T05:28:31.027Z,95.32
2022-11-25T05:30:58.735Z,95.65
2022-11-25T05:33:25.805Z,95.18
2022-11-25T05:36:01.441Z,100.32
2022-11-25T05:38:28.719Z,95.28
2022-11-25T05:41:02.986Z,96.28
2022-11-25T05:43:36.169Z,94.05
2022-11-25T05:46:07.953Z,98.03
2022-11-25T05:48:36.249Z,99.72
2022-11-25T05:51:06.670Z,92.93
2022-11-25T05:53:35.107Z,94.82
2022-11-25T05:56:06.632Z,91.45
2022-11-25T05:58:39.941Z,90.15
2022-11-25T06:01:13.364Z,96.28
2022-11-25T06:03:40.734Z,94.72
2022-11-25T06:06:08.949Z,90.25
2022-11-25T06:08:37.934Z,96.85
2022-11-25T06:11:07.615Z,94.63
2022-11-25T06:13:35.235Z,114.35
2022-11-25T06:16:08.594Z,98.75
2022-11-25T06:18:37.940Z,87.38
2022-11-25T06:21:06.986Z,89.85
2022-11-25T06:23:35.075Z,93.18
2022-11-25T06:26:10.586Z,83.03
2022-11-25T06:28:46.587Z,81.10
2022-11-25T06:31:16.738Z,87.53
2022-11-25T06:33:47.904Z,82.85
2022-11-25T06:36:18.323Z,90.30
2022-11-25T06:38:51.513Z,84.78
2022-11-25T06:41:21.454Z,94.35
2022-11-25T06:43:48.895Z,88.80
2022-11-25T06:46:23.028Z,90.25
2022-11-25T06:48:52.324Z,80.70
2022-11-25T06:51:21.449Z,88.22
2022-11-25T06:53:48.998Z,87.22
2022-11-25T06:56:28.436Z,91.07
2022-11-25T06:58:56.378Z,86.00
2022-11-25T07:01:28.713Z,91.13
2022-11-25T07:04:00.330Z,84.88
2022-11-25T07:06:28.110Z,84.07
2022-11-25T07:08:56.026Z,82.07
2022-11-25T07:11:25.675Z,81.45
2022-11-25T07:13:55.305Z,82.75
2022-11-25T07:16:23.095Z,82.22
2022-11-25T07:19:05.204Z,80.45
2022-11-25T07:21:34.857Z,79.80
2022-11-25T07:24:04.032Z,76.05
2022-11-25T07:26:36.700Z,80.47
2022-11-25T07:29:23.454Z,80.87
2022-11-25T07:31:59.075Z,83.43
2022-11-25T07:34:26.139Z,81.20
2022-11-25T07:36:53.577Z,81.65
2022-11-25T07:39:23.532Z,77.05
2022-11-25T07:41:53.027Z,74.00
2022-11-25T07:44:21.834Z,69.55
2022-11-25T07:46:50.499Z,74.38
2022-11-25T07:49:21.353Z,73.75
2022-11-25T07:52:04.657Z,79.28
2022-11-25T07:54:33.491Z,72.25
2022-11-25T07:57:02.838Z,70.35
2022-11-25T07:59:30.338Z,67.70
2022-11-25T08:01:57.967Z,70.82
2022-11-25T08:04:25.262Z,68.50
2022-11-25T08:06:53.589Z,74.80
2022-11-25T08:09:24.105Z,76.00
2022-11-25T08:11:52.008Z,66.28
2022-11-25T08:14:21.021Z,71.40
2022-11-25T08:16:48.380Z,68.60
2022-11-25T08:19:23.131Z,70.95
2022-11-25T08:21:54.644Z,69.10
2022-11-25T08:24:21.795Z,71.43
2022-11-25T08:26:49.372Z,67.47
2022-11-25T08:29:18.680Z,80.30
2022-11-25T08:31:47.800Z,67.90
2022-11-25T08:34:23.757Z,79.85
2022-11-25T08:36:52.094Z,73.00
2022-11-25T08:39:55.924Z,75.72
2022-11-25T08:42:12.919Z,72.15
2022-11-25T08:44:40.852Z,74.93
2022-11-25T08:47:10.170Z,65.10
2022-11-25T08:49:41.772Z,62.60
2022-11-25T08:52:10.750Z,61.47
2022-11-25T08:54:38.111Z,60.90
2022-11-25T08:57:05.515Z,62.58
2022-11-25T08:59:35.549Z,56.40
2022-11-25T09:02:03.439Z,55.35
2022-11-25T09:04:32.140Z,56.10
2022-11-25T09:07:02.209Z,53.55
2022-11-25T09:09:29.254Z,54.78
2022-11-25T09:11:56.193Z,54.88
2022-11-25T09:14:23.735Z,55.60
2022-11-25T09:16:51.051Z,55.67
2022-11-25T09:19:18.041Z,53.00
2022-11-25T09:21:45.430Z,58.88
2022-11-25T09:24:14.531Z,54.67
2022-11-25T09:26:42.532Z,55.72
2022-11-25T09:29:12.461Z,59.80
2022-11-25T09:31:41.109Z,57.50
2022-11-25T09:34:10.132Z,59.17
2022-11-25T09:36:39.638Z,59.40
2022-11-25T09:39:08.925Z,59.75
2022-11-25T09:42:18.835Z,59.30
2022-11-25T09:45:36.986Z,56.00
2022-11-25T09:48:29.796Z,52.80
2022-11-25T09:51:21.812Z,47.80
2022-11-25T09:54:08.249Z,41.45
2022-11-25T09:56:38.202Z,48.20
2022-11-25T09:59:11.465Z,37.25
2022-11-25T10:02:03.081Z,43.55
2022-11-25T10:04:46.824Z,42.22
2022-11-25T10:07:35.054Z,48.13
2022-11-25T10:10:05.093Z,43.80
2022-11-25T10:12:45.125Z,45.88
2022-11-25T10:15:43.848Z,45.63
2022-11-25T10:18:53.411Z,44.78
2022-11-25T10:21:20.848Z,46.70
2022-11-25T10:23:48.314Z,45.60
2022-11-25T10:26:18.131Z,43.35
2022-11-25T10:28:57.193Z,46.28
2022-11-25T10:31:35.917Z,44.17
2022-11-25T10:34:24.695Z,42.88
2022-11-25T10:36:54.565Z,43.95
2022-11-25T10:39:27.299Z,44.67
2022-11-25T10:42:22.360Z,41.83
2022-11-25T10:44:50.267Z,47.67
2022-11-25T10:47:45.938Z,42.00
2022-11-25T10:50:48.694Z,45.88
2022-11-25T10:53:22.926Z,47.70
2022-11-25T10:56:04.000Z,46.70
2022-11-25T10:58:40.225Z,40.58
2022-11-25T11:01:23.170Z,42.85
2022-11-25T11:04:03.689Z,46.33
2022-11-25T11:06:39.693Z,48.38
2022-11-25T11:09:26.981Z,42.00
2022-11-25T11:11:53.903Z,41.15
2022-11-25T11:14:22.528Z,37.63
2022-11-25T11:16:55.746Z,31.23
2022-11-25T11:19:29.864Z,42.00
2022-11-25T11:22:25.560Z,36.50
2022-11-25T11:25:07.684Z,36.45
2022-11-25T11:27:38.240Z,38.55
2022-11-25T11:30:21.239Z,39.72
2022-11-25T11:33:37.422Z,36.10
2022-11-25T11:36:35.919Z,39.35
2022-11-25T11:39:39.623Z,38.95
2022-11-25T11:42:35.909Z,38.10
2022-11-25T11:45:23.866Z,38.70
2022-11-25T11:48:01.742Z,38.08
2022-11-25T11:50:46.566Z,38.05
2022-11-25T11:53:36.431Z,39.08
2022-11-25T11:56:35.338Z,32.15
2022-11-25T11:59:42.604Z,35.20
2022-11-25T12:02:29.956Z,35.03
2022-11-25T12:05:27.039Z,39.88
2022-11-25T12:08:13.005Z,35.63
2022-11-25T12:10:56.854Z,32.30
2022-11-25T12:13:48.409Z,34.72
2022-11-25T12:16:24.258Z,33.35
2022-11-25T12:19:02.857Z,28.65
2022-11-25T12:21:42.393Z,28.02
2022-11-25T12:24:36.554Z,27.73
2022-11-25T12:30:04.374Z,26.90
2022-11-25T12:32:46.598Z,27.85
2022-11-25T12:35:39.512Z,27.45
2022-11-25T12:38:26.407Z,29.20
2022-11-25T12:41:05.905Z,28.45
2022-11-25T12:43:53.871Z,27.33
2022-11-25T12:46:39.268Z,20.95
2022-11-25T12:49:14.274Z,21.75
2022-11-25T12:52:00.963Z,21.77
2022-11-25T12:54:45.080Z,21.58
2022-11-25T12:57:49.686Z,20.65
2022-11-25T13:00:43.080Z,19.27
2022-11-25T13:03:37.014Z,23.20
2022-11-25T13:06:05.032Z,22.90
2022-11-25T13:08:50.798Z,20.13
2022-11-25T13:11:33.008Z,25.05
2022-11-25T13:14:01.390Z,22.63
2022-11-25T13:16:31.431Z,23.90
2022-11-25T13:18:59.204Z,26.10
2022-11-25T13:21:28.646Z,23.75
2022-11-25T13:23:58.965Z,26.58
2022-11-25T13:26:36.525Z,26.05
2022-11-25T13:29:26.960Z,22.98
2022-11-25T13:32:25.582Z,23.50
2022-11-25T13:35:27.005Z,23.23
2022-11-25T13:37:54.333Z,22.20
2022-11-25T13:40:29.687Z,24.63
2022-11-25T13:42:57.768Z,24.70
2022-11-25T13:45:43.861Z,24.77
2022-11-25T13:48:18.146Z,24.67
2022-11-25T13:51:12.747Z,22.50
2022-11-25T13:53:41.537Z,21.08
2022-11-25T13:56:25.601Z,23.17
2022-11-25T13:59:12.118Z,24.10
2022-11-25T14:01:52.076Z,27.35
2022-11-25T14:04:43.047Z,26.92
2022-11-25T14:07:49.437Z,26.98
2022-11-25T14:10:38.953Z,26.15
2022-11-25T14:13:15.004Z,27.58
2022-11-25T14:16:06.680Z,26.40
2022-11-25T14:19:21.771Z,24.23
2022-11-25T14:21:53.841Z,28.45
2022-11-25T14:24:48.268Z,29.92
2022-11-25T14:27:26.690Z,26.25
2022-11-25T14:30:00.999Z,28.60
2022-11-25T14:32:41.559Z,29.48
2022-11-25T14:35:16.994Z,28.90
2022-11-25T14:37:57.042Z,33.15
2022-11-25T14:40:31.915Z,31.90
2022-11-25T14:43:05.451Z,31.48
2022-11-25T14:45:35.715Z,28.58
2022-11-25T14:48:22.061Z,30.02
2022-11-25T14:51:20.035Z,31.38
2022-11-25T14:53:50.041Z,33.95
2022-11-25T14:56:31.441Z,31.45
2022-11-25T14:58:59.960Z,27.90
2022-11-25T15:01:33.744Z,35.30
2022-11-25T15:04:07.129Z,34.70
2022-11-25T15:06:40.499Z,31.38
2022-11-25T15:09:26.851Z,37.08
2022-11-25T15:12:07.843Z,41.05
2022-11-25T15:14:39.079Z,37.97
2022-11-25T15:17:21.631Z,30.83
2022-11-25T15:19:49.677Z,37.85
2022-11-25T15:22:23.582Z,35.17
2022-11-25T15:24:55.883Z,38.08
2022-11-25T15:27:28.082Z,36.88
2022-11-25T15:29:57.354Z,39.15
2022-11-25T15:32:34.162Z,39.70
2022-11-25T15:35:02.440Z,43.35
2022-11-25T15:37:29.682Z,44.25
2022-11-25T15:40:37.017Z,51.83
2022-11-25T15:43:27.566Z,54.45
2022-11-25T15:46:06.200Z,48.67
2022-11-25T15:48:41.351Z,54.17
2022-11-25T15:51:39.803Z,49.72
2022-11-25T15:54:13.509Z,54.20
2022-11-25T15:56:49.226Z,54.58
2022-11-25T15:59:50.790Z,49.03
2022-11-25T16:02:42.404Z,45.78
2022-11-25T16:05:24.930Z,48.55
2022-11-25T16:07:53.296Z,41.28
2022-11-25T16:10:25.356Z,42.92
2022-11-25T16:13:29.163Z,52.50
2022-11-25T16:16:12.258Z,42.55
2022-11-25T16:19:16.992Z,45.95
2022-11-25T16:21:59.126Z,45.80
2022-11-25T16:24:36.198Z,87.80
2022-11-25T16:27:07.120Z,52.50
2022-11-25T16:29:47.690Z,53.17
2022-11-25T16:32:20.714Z,45.22
2022-11-25T16:34:50.580Z,45.75
2022-11-25T16:37:17.849Z,43.72
2022-11-25T16:39:45.302Z,48.17
2022-11-25T16:42:20.124Z,41.92
2022-11-25T16:44:49.661Z,46.70
2022-11-25T16:47:19.528Z,40.78
2022-11-25T16:49:47.695Z,34.15
2022-11-25T16:52:15.626Z,39.30
2022-11-25T16:54:43.297Z,39.92
2022-11-25T16:57:20.489Z,41.38
2022-11-25T16:59:53.107Z,38.15
2022-11-25T17:02:23.581Z,27.58
2022-11-25T17:04:59.639Z,33.28
2022-11-25T17:07:33.940Z,40.33
2022-11-25T17:10:01.304Z,37.47
2022-11-25T17:12:32.722Z,39.60
2022-11-25T17:15:02.607Z,34.10
2022-11-25T17:17:40.056Z,33.65
2022-11-25T17:20:15.040Z,37.80
2022-11-25T17:22:42.500Z,38.65
2022-11-25T17:25:12.532Z,36.60
2022-11-25T17:27:40.463Z,32.88
2022-11-25T17:30:16.580Z,35.30
2022-11-25T17:32:43.604Z,28.65
2022-11-25T17:35:19.437Z,33.65
2022-11-25T17:37:47.442Z,31.27
2022-11-25T17:40:15.295Z,38.30
2022-11-25T17:42:50.757Z,48.88
2022-11-25T17:45:21.759Z,38.95
2022-11-25T17:47:49.290Z,37.15
2022-11-25T17:50:21.858Z,51.15
2022-11-25T17:52:55.380Z,49.50
2022-11-25T17:57:57.151Z,51.85
2022-11-25T18:00:33.780Z,60.88
2022-11-25T18:03:02.345Z,95.15
2022-11-25T18:05:35.991Z,91.82
2022-11-25T18:10:32.121Z,91.72
2022-11-25T18:13:00.621Z,92.78
2022-11-25T18:15:32.410Z,88.30
2022-11-25T18:18:03.661Z,80.60
2022-11-25T18:20:33.295Z,81.15
2022-11-25T18:23:01.787Z,64.03
2022-11-25T18:25:32.429Z,90.18
2022-11-25T18:28:01.094Z,80.35
2022-11-25T18:30:36.231Z,53.63
2022-11-25T18:33:09.787Z,50.75
2022-11-25T18:38:06.988Z,48.53
2022-11-25T18:40:36.661Z,48.80
2022-11-25T18:43:05.300Z,47.90
2022-11-25T18:45:37.376Z,48.50
2022-11-25T18:48:21.277Z,46.33
2022-11-25T18:50:53.479Z,54.28
2022-11-25T18:53:21.373Z,58.10
2022-11-25T18:55:50.062Z,64.18
2022-11-25T18:58:24.443Z,62.40
2022-11-25T19:00:52.825Z,60.15
2022-11-25T19:03:27.174Z,57.47
2022-11-25T19:05:55.266Z,68.47
2022-11-25T19:08:22.866Z,60.40
2022-11-25T19:10:54.908Z,58.75
2022-11-25T19:13:32.437Z,58.22
2022-11-25T19:16:08.171Z,59.85
2022-11-25T19:18:37.068Z,63.90
2022-11-25T19:21:19.661Z,55.63
2022-11-25T19:23:48.091Z,60.55
2022-11-25T19:26:24.144Z,60.75
2022-11-25T19:29:06.161Z,64.53
2022-11-25T19:31:34.919Z,62.17
2022-11-25T19:34:20.578Z,71.22
2022-11-25T19:36:48.101Z,66.43
2022-11-25T19:39:19.080Z,70.88
2022-11-25T19:41:52.453Z,67.57
2022-11-25T19:44:20.761Z,66.70
2022-11-25T19:47:14.335Z,69.75
2022-11-25T19:49:38.036Z,62.17
2022-11-25T19:52:06.162Z,58.58
2022-11-25T19:54:33.873Z,58.78
2022-11-25T19:57:01.363Z,64.90
2022-11-25T19:59:28.414Z,65.75
2022-11-25T20:01:55.733Z,62.85
2022-11-25T20:04:24.329Z,63.15
2022-11-25T20:06:53.842Z,63.80
2022-11-25T20:09:21.148Z,66.68
2022-11-25T20:11:48.930Z,61.55
2022-11-25T20:14:18.781Z,57.92
2022-11-25T20:16:50.486Z,62.60
2022-11-25T20:19:19.450Z,69.25
2022-11-25T20:21:48.064Z,86.93
2022-11-25T20:24:21.861Z,66.95
2022-11-25T20:26:50.203Z,62.90
2022-11-25T20:29:23.605Z,68.97
2022-11-25T20:31:56.909Z,51.40
2022-11-25T20:34:25.080Z,51.67
2022-11-25T20:36:53.574Z,53.95
2022-11-25T20:39:21.557Z,62.58
2022-11-25T20:41:55.620Z,65.28
2022-11-25T20:44:23.651Z,58.35
2022-11-25T20:46:54.325Z,57.25
2022-11-25T20:49:29.964Z,59.25
2022-11-25T20:51:58.361Z,58.40
2022-11-25T20:54:25.944Z,66.57
2022-11-25T20:56:57.759Z,68.07
2022-11-25T20:59:29.209Z,68.75
2022-11-25T21:01:57.046Z,74.80
2022-11-25T21:04:24.761Z,70.97
2022-11-25T21:06:52.562Z,77.65
2022-11-25T21:09:23.758Z,87.15
2022-11-25T21:11:52.188Z,85.43
2022-11-25T21:14:20.827Z,87.20
2022-11-25T21:16:48.537Z,93.13
2022-11-25T21:19:21.910Z,89.13
2022-11-25T21:21:51.428Z,71.30
2022-11-25T21:24:21.907Z,69.90
2022-11-25T21:26:50.806Z,152.68
2022-11-25T21:29:18.788Z,77.03
2022-11-25T21:31:46.399Z,76.75
2022-11-25T21:34:14.906Z,99.45
2022-11-25T21:36:46.214Z,110.88
2022-11-25T21:39:33.600Z,103.75
2022-11-25T21:42:05.322Z,111.68
2022-11-25T21:44:39.916Z,131.13
2022-11-25T21:47:13.627Z,128.88
2022-11-25T21:52:09.519Z,118.65
2022-11-25T21:54:37.044Z,116.88
2022-11-25T21:57:04.453Z,123.88
2022-11-25T21:59:32.287Z,180.13
2022-11-25T22:01:59.323Z,94.95
2022-11-25T22:04:26.786Z,99.13
2022-11-25T22:06:55.356Z,88.97
2022-11-25T22:09:24.894Z,70.43
2022-11-25T22:11:53.262Z,66.07
2022-11-25T22:14:37.243Z,65.13
2022-11-25T22:17:10.585Z,55.53
2022-11-25T22:19:37.583Z,65.93
2022-11-25T22:22:17.285Z,77.40
2022-11-25T22:24:46.043Z,80.10
2022-11-25T22:27:25.270Z,74.20
2022-11-25T22:29:53.375Z,73.35
2022-11-25T22:32:20.858Z,58.28
2022-11-25T22:34:47.902Z,63.65
2022-11-25T22:37:21.153Z,69.47
2022-11-25T22:39:48.667Z,59.95
2022-11-25T22:42:28.717Z,66.93
2022-11-25T22:44:59.144Z,65.25
2022-11-25T22:47:42.997Z,59.97
2022-11-25T22:50:22.102Z,59.03
2022-11-25T22:52:50.337Z,54.17
2022-11-25T22:55:23.712Z,59.90
2022-11-25T23:00:31.124Z,55.78
2022-11-25T23:03:00.411Z,53.65
2022-11-25T23:05:33.401Z,57.92
2022-11-25T23:10:31.620Z,57.03
2022-11-25T23:12:58.674Z,54.67
2022-11-25T23:15:26.264Z,55.30
2022-11-25T23:17:58.662Z,50.80
2022-11-25T23:20:38.239Z,55.58
2022-11-25T23:23:19.168Z,55.53
2022-11-25T23:25:47.055Z,59.30
2022-11-25T23:28:15.806Z,54.75
2022-11-25T23:30:58.118Z,56.40
2022-11-25T23:33:25.295Z,58.75
2022-11-25T23:35:52.378Z,66.70
2022-11-25T23:38:25.688Z,63.42
2022-11-25T23:40:58.984Z,59.70
2022-11-25T23:43:28.022Z,53.13
2022-11-25T23:45:56.778Z,55.03
2022-11-25T23:48:30.297Z,60.72
2022-11-25T23:50:59.484Z,61.33
2022-11-25T23:53:32.233Z,68.70
2022-11-25T23:56:00.024Z,66.60
2022-11-25T23:58:27.213Z,58.80
